sensor_id;sensor_type;location;lat;lon;timestamp;temperature;humidity
15937;DHT22;9163;48.818;8.976;2024-03-17T00:02:26;5.90;99.90
15937;DHT22;9163;48.818;8.976;2024-03-17T00:04:53;5.90;99.90
15937;DHT22;9163;48.818;8.976;2024-03-17T00:07:22;5.90;99.90
15937;DHT22;9163;48.818;8.976;2024-03-17T00:09:48;5.90;99.90
15937;DHT22;9163;48.818;8.976;2024-03-17T00:12:16;5.90;99.90
15937;DHT22;9163;48.818;8.976;2024-03-17T00:14:42;5.90;99.90
15937;DHT22;9163;48.818;8.976;2024-03-17T00:17:11;5.90;99.90
15937;DHT22;9163;48.818;8.976;2024-03-17T00:19:37;5.90;99.90
15937;DHT22;9163;48.818;8.976;2024-03-17T00:22:04;5.90;99.90
15937;DHT22;9163;48.818;8.976;2024-03-17T00:24:33;5.80;99.90
15937;DHT22;9163;48.818;8.976;2024-03-17T00:27:01;5.80;99.90
15937;DHT22;9163;48.818;8.976;2024-03-17T00:29:27;5.80;99.90
15937;DHT22;9163;48.818;8.976;2024-03-17T00:31:55;5.80;99.90
15937;DHT22;9163;48.818;8.976;2024-03-17T00:34:21;5.80;99.90
15937;DHT22;9163;48.818;8.976;2024-03-17T00:36:48;5.90;99.90
15937;DHT22;9163;48.818;8.976;2024-03-17T00:39:14;5.90;99.90
15937;DHT22;9163;48.818;8.976;2024-03-17T00:41:44;5.80;99.90
15937;DHT22;9163;48.818;8.976;2024-03-17T00:44:10;5.80;99.90
15937;DHT22;9163;48.818;8.976;2024-03-17T00:46:37;5.80;99.90
15937;DHT22;9163;48.818;8.976;2024-03-17T00:49:05;5.90;99.90
15937;DHT22;9163;48.818;8.976;2024-03-17T00:51:32;5.90;99.90
15937;DHT22;9163;48.818;8.976;2024-03-17T00:53:59;5.80;99.90
15937;DHT22;9163;48.818;8.976;2024-03-17T00:56:26;5.70;99.90
15937;DHT22;9163;48.818;8.976;2024-03-17T00:58:55;5.60;99.90
15937;DHT22;9163;48.818;8.976;2024-03-17T01:01:22;5.50;99.90
15937;DHT22;9163;48.818;8.976;2024-03-17T01:03:49;5.40;99.90
15937;DHT22;9163;48.818;8.976;2024-03-17T01:06:16;5.40;99.90
15937;DHT22;9163;48.818;8.976;2024-03-17T01:08:42;5.40;99.90
15937;DHT22;9163;48.818;8.976;2024-03-17T01:11:14;5.40;99.90
15937;DHT22;9163;48.818;8.976;2024-03-17T01:13:40;5.30;99.90
15937;DHT22;9163;48.818;8.976;2024-03-17T01:16:10;5.30;99.90
15937;DHT22;9163;48.818;8.976;2024-03-17T01:18:36;5.20;99.90
15937;DHT22;9163;48.818;8.976;2024-03-17T01:21:06;5.20;99.90
15937;DHT22;9163;48.818;8.976;2024-03-17T01:23:32;5.10;99.90
15937;DHT22;9163;48.818;8.976;2024-03-17T01:25:59;5.10;99.90
15937;DHT22;9163;48.818;8.976;2024-03-17T01:28:26;5.10;99.90
15937;DHT22;9163;48.818;8.976;2024-03-17T01:30:53;5.10;99.90
15937;DHT22;9163;48.818;8.976;2024-03-17T01:33:22;5.10;99.90
15937;DHT22;9163;48.818;8.976;2024-03-17T01:35:48;5.00;99.90
15937;DHT22;9163;48.818;8.976;2024-03-17T01:38:15;4.90;99.90
15937;DHT22;9163;48.818;8.976;2024-03-17T01:40:41;5.00;99.90
15937;DHT22;9163;48.818;8.976;2024-03-17T01:43:10;5.00;99.90
15937;DHT22;9163;48.818;8.976;2024-03-17T01:45:36;5.00;99.90
15937;DHT22;9163;48.818;8.976;2024-03-17T01:48:08;4.90;99.90
15937;DHT22;9163;48.818;8.976;2024-03-17T01:50:37;4.90;99.90
15937;DHT22;9163;48.818;8.976;2024-03-17T01:53:05;5.00;99.90
15937;DHT22;9163;48.818;8.976;2024-03-17T01:55:32;4.90;99.90
15937;DHT22;9163;48.818;8.976;2024-03-17T01:58:00;5.00;99.90
15937;DHT22;9163;48.818;8.976;2024-03-17T02:00:29;5.00;99.90
15937;DHT22;9163;48.818;8.976;2024-03-17T02:02:57;5.00;99.90
15937;DHT22;9163;48.818;8.976;2024-03-17T02:05:24;5.00;99.90
15937;DHT22;9163;48.818;8.976;2024-03-17T02:07:52;5.00;99.90
15937;DHT22;9163;48.818;8.976;2024-03-17T02:10:19;5.00;99.90
15937;DHT22;9163;48.818;8.976;2024-03-17T02:12:45;5.00;99.90
15937;DHT22;9163;48.818;8.976;2024-03-17T02:15:13;5.00;99.90
15937;DHT22;9163;48.818;8.976;2024-03-17T02:17:40;5.00;99.90
15937;DHT22;9163;48.818;8.976;2024-03-17T02:20:08;5.00;99.90
15937;DHT22;9163;48.818;8.976;2024-03-17T02:22:36;5.00;99.90
15937;DHT22;9163;48.818;8.976;2024-03-17T02:25:03;5.00;99.90
15937;DHT22;9163;48.818;8.976;2024-03-17T02:27:30;5.10;99.90
15937;DHT22;9163;48.818;8.976;2024-03-17T02:29:57;5.10;99.90
15937;DHT22;9163;48.818;8.976;2024-03-17T02:32:24;5.10;99.90
15937;DHT22;9163;48.818;8.976;2024-03-17T02:34:53;5.20;99.90
15937;DHT22;9163;48.818;8.976;2024-03-17T02:37:20;5.20;99.90
15937;DHT22;9163;48.818;8.976;2024-03-17T02:39:49;5.20;99.90
15937;DHT22;9163;48.818;8.976;2024-03-17T02:42:15;5.20;99.90
15937;DHT22;9163;48.818;8.976;2024-03-17T02:44:43;5.20;99.90
15937;DHT22;9163;48.818;8.976;2024-03-17T02:47:10;5.20;99.90
15937;DHT22;9163;48.818;8.976;2024-03-17T02:49:40;5.20;99.90
15937;DHT22;9163;48.818;8.976;2024-03-17T02:52:10;5.10;99.90
15937;DHT22;9163;48.818;8.976;2024-03-17T02:54:38;5.10;99.90
15937;DHT22;9163;48.818;8.976;2024-03-17T02:57:07;5.20;99.90
15937;DHT22;9163;48.818;8.976;2024-03-17T02:59:34;5.20;99.90
15937;DHT22;9163;48.818;8.976;2024-03-17T03:02:02;5.10;99.90
15937;DHT22;9163;48.818;8.976;2024-03-17T03:04:29;5.10;99.90
15937;DHT22;9163;48.818;8.976;2024-03-17T03:06:56;5.10;99.90
15937;DHT22;9163;48.818;8.976;2024-03-17T03:09:23;5.10;99.90
15937;DHT22;9163;48.818;8.976;2024-03-17T03:11:57;5.10;99.90
15937;DHT22;9163;48.818;8.976;2024-03-17T03:14:26;5.20;99.90
15937;DHT22;9163;48.818;8.976;2024-03-17T03:16:54;5.20;99.90
15937;DHT22;9163;48.818;8.976;2024-03-17T03:19:21;5.10;99.90
15937;DHT22;9163;48.818;8.976;2024-03-17T03:21:48;5.20;99.90
15937;DHT22;9163;48.818;8.976;2024-03-17T03:24:16;5.20;99.90
15937;DHT22;9163;48.818;8.976;2024-03-17T03:26:43;5.20;99.90
15937;DHT22;9163;48.818;8.976;2024-03-17T03:29:11;5.20;99.90
15937;DHT22;9163;48.818;8.976;2024-03-17T03:31:41;5.20;99.90
15937;DHT22;9163;48.818;8.976;2024-03-17T03:34:09;5.20;99.90
15937;DHT22;9163;48.818;8.976;2024-03-17T03:36:38;5.20;99.90
15937;DHT22;9163;48.818;8.976;2024-03-17T03:39:07;5.10;99.90
15937;DHT22;9163;48.818;8.976;2024-03-17T03:41:37;5.10;99.90
15937;DHT22;9163;48.818;8.976;2024-03-17T03:44:05;5.10;99.90
15937;DHT22;9163;48.818;8.976;2024-03-17T03:46:32;5.00;99.90
15937;DHT22;9163;48.818;8.976;2024-03-17T03:49:01;5.00;99.90
15937;DHT22;9163;48.818;8.976;2024-03-17T03:51:28;5.00;99.90
15937;DHT22;9163;48.818;8.976;2024-03-17T03:53:55;5.00;99.90
15937;DHT22;9163;48.818;8.976;2024-03-17T03:56:23;5.00;99.90
15937;DHT22;9163;48.818;8.976;2024-03-17T03:58:51;5.00;99.90
15937;DHT22;9163;48.818;8.976;2024-03-17T04:01:20;4.90;99.90
15937;DHT22;9163;48.818;8.976;2024-03-17T04:03:48;4.80;99.90
15937;DHT22;9163;48.818;8.976;2024-03-17T04:06:17;4.80;99.90
15937;DHT22;9163;48.818;8.976;2024-03-17T04:08:44;4.80;99.90
15937;DHT22;9163;48.818;8.976;2024-03-17T04:11:12;4.70;99.90
15937;DHT22;9163;48.818;8.976;2024-03-17T04:13:39;4.70;99.90
15937;DHT22;9163;48.818;8.976;2024-03-17T04:16:07;4.70;99.90
15937;DHT22;9163;48.818;8.976;2024-03-17T04:18:36;4.70;99.90
15937;DHT22;9163;48.818;8.976;2024-03-17T04:21:05;4.70;99.90
15937;DHT22;9163;48.818;8.976;2024-03-17T04:23:34;4.60;99.90
15937;DHT22;9163;48.818;8.976;2024-03-17T04:26:04;4.60;99.90
15937;DHT22;9163;48.818;8.976;2024-03-17T04:28:33;4.60;99.90
15937;DHT22;9163;48.818;8.976;2024-03-17T04:31:05;4.50;99.90
15937;DHT22;9163;48.818;8.976;2024-03-17T04:33:33;4.50;99.90
15937;DHT22;9163;48.818;8.976;2024-03-17T04:36:01;4.50;99.90
15937;DHT22;9163;48.818;8.976;2024-03-17T04:38:29;4.50;99.90
15937;DHT22;9163;48.818;8.976;2024-03-17T04:40:58;4.50;99.90
15937;DHT22;9163;48.818;8.976;2024-03-17T04:43:31;4.50;99.90
15937;DHT22;9163;48.818;8.976;2024-03-17T04:46:03;4.60;99.90
15937;DHT22;9163;48.818;8.976;2024-03-17T04:48:31;4.60;99.90
15937;DHT22;9163;48.818;8.976;2024-03-17T04:50:59;4.60;99.90
15937;DHT22;9163;48.818;8.976;2024-03-17T04:53:27;4.60;99.90
15937;DHT22;9163;48.818;8.976;2024-03-17T04:56:01;4.60;99.90
15937;DHT22;9163;48.818;8.976;2024-03-17T04:58:30;4.50;99.90
15937;DHT22;9163;48.818;8.976;2024-03-17T05:00:57;4.40;99.90
15937;DHT22;9163;48.818;8.976;2024-03-17T05:03:24;4.40;99.90
15937;DHT22;9163;48.818;8.976;2024-03-17T05:05:58;4.50;99.90
15937;DHT22;9163;48.818;8.976;2024-03-17T05:08:28;4.50;99.90
15937;DHT22;9163;48.818;8.976;2024-03-17T05:10:57;4.50;99.90
15937;DHT22;9163;48.818;8.976;2024-03-17T05:13:25;4.50;99.90
15937;DHT22;9163;48.818;8.976;2024-03-17T05:15:53;4.50;99.90
15937;DHT22;9163;48.818;8.976;2024-03-17T05:18:20;4.50;99.90
15937;DHT22;9163;48.818;8.976;2024-03-17T05:20:56;4.50;99.90
15937;DHT22;9163;48.818;8.976;2024-03-17T05:23:26;4.50;99.90
15937;DHT22;9163;48.818;8.976;2024-03-17T05:25:54;4.50;99.90
15937;DHT22;9163;48.818;8.976;2024-03-17T05:28:22;4.50;99.90
15937;DHT22;9163;48.818;8.976;2024-03-17T05:30:50;4.50;99.90
15937;DHT22;9163;48.818;8.976;2024-03-17T05:33:18;4.50;99.90
15937;DHT22;9163;48.818;8.976;2024-03-17T05:35:50;4.50;99.90
15937;DHT22;9163;48.818;8.976;2024-03-17T05:38:19;4.50;99.90
15937;DHT22;9163;48.818;8.976;2024-03-17T05:40:54;4.60;99.90
15937;DHT22;9163;48.818;8.976;2024-03-17T05:43:22;4.60;99.90
15937;DHT22;9163;48.818;8.976;2024-03-17T05:45:51;4.60;99.90
15937;DHT22;9163;48.818;8.976;2024-03-17T05:48:19;4.60;99.90
15937;DHT22;9163;48.818;8.976;2024-03-17T05:50:46;4.60;99.90
15937;DHT22;9163;48.818;8.976;2024-03-17T05:53:13;4.60;99.90
15937;DHT22;9163;48.818;8.976;2024-03-17T05:55:44;4.60;99.90
15937;DHT22;9163;48.818;8.976;2024-03-17T05:58:11;4.60;99.90
15937;DHT22;9163;48.818;8.976;2024-03-17T06:00:39;4.60;99.90
15937;DHT22;9163;48.818;8.976;2024-03-17T06:03:09;4.60;99.90
15937;DHT22;9163;48.818;8.976;2024-03-17T06:05:38;4.60;99.90
15937;DHT22;9163;48.818;8.976;2024-03-17T06:08:07;4.60;99.90
15937;DHT22;9163;48.818;8.976;2024-03-17T06:10:43;4.70;99.90
15937;DHT22;9163;48.818;8.976;2024-03-17T06:13:16;4.80;99.90
15937;DHT22;9163;48.818;8.976;2024-03-17T06:15:47;4.90;99.90
15937;DHT22;9163;48.818;8.976;2024-03-17T06:18:16;4.90;99.90
15937;DHT22;9163;48.818;8.976;2024-03-17T06:20:45;5.00;99.90
15937;DHT22;9163;48.818;8.976;2024-03-17T06:23:13;5.00;99.90
15937;DHT22;9163;48.818;8.976;2024-03-17T06:25:41;5.20;99.90
15937;DHT22;9163;48.818;8.976;2024-03-17T06:28:08;5.40;99.90
15937;DHT22;9163;48.818;8.976;2024-03-17T06:30:40;5.50;99.90
15937;DHT22;9163;48.818;8.976;2024-03-17T06:33:08;5.70;99.90
15937;DHT22;9163;48.818;8.976;2024-03-17T06:35:38;5.80;99.90
15937;DHT22;9163;48.818;8.976;2024-03-17T06:38:06;6.00;99.90
15937;DHT22;9163;48.818;8.976;2024-03-17T06:40:47;6.10;99.90
15937;DHT22;9163;48.818;8.976;2024-03-17T06:43:28;6.10;99.90
15937;DHT22;9163;48.818;8.976;2024-03-17T06:46:01;6.30;99.90
15937;DHT22;9163;48.818;8.976;2024-03-17T06:48:34;6.50;99.90
15937;DHT22;9163;48.818;8.976;2024-03-17T06:51:08;6.80;99.90
15937;DHT22;9163;48.818;8.976;2024-03-17T06:53:36;7.00;99.90
15937;DHT22;9163;48.818;8.976;2024-03-17T06:56:03;7.00;99.90
15937;DHT22;9163;48.818;8.976;2024-03-17T06:58:31;7.10;99.90
15937;DHT22;9163;48.818;8.976;2024-03-17T07:01:00;7.10;99.90
15937;DHT22;9163;48.818;8.976;2024-03-17T07:03:29;6.80;99.90
15937;DHT22;9163;48.818;8.976;2024-03-17T07:05:58;6.90;99.90
15937;DHT22;9163;48.818;8.976;2024-03-17T07:08:29;7.00;99.90
15937;DHT22;9163;48.818;8.976;2024-03-17T07:10:58;7.00;99.90
15937;DHT22;9163;48.818;8.976;2024-03-17T07:13:28;7.20;99.90
15937;DHT22;9163;48.818;8.976;2024-03-17T07:15:55;7.10;99.90
15937;DHT22;9163;48.818;8.976;2024-03-17T07:18:25;7.30;99.90
15937;DHT22;9163;48.818;8.976;2024-03-17T07:20:52;7.40;99.90
15937;DHT22;9163;48.818;8.976;2024-03-17T07:23:19;7.70;99.90
15937;DHT22;9163;48.818;8.976;2024-03-17T07:25:54;7.90;99.90
15937;DHT22;9163;48.818;8.976;2024-03-17T07:28:22;8.10;99.90
15937;DHT22;9163;48.818;8.976;2024-03-17T07:30:51;8.10;99.90
15937;DHT22;9163;48.818;8.976;2024-03-17T07:33:19;8.20;99.90
15937;DHT22;9163;48.818;8.976;2024-03-17T07:35:48;8.70;99.90
15937;DHT22;9163;48.818;8.976;2024-03-17T07:38:14;9.00;99.90
15937;DHT22;9163;48.818;8.976;2024-03-17T07:40:42;9.00;99.90
15937;DHT22;9163;48.818;8.976;2024-03-17T07:43:11;9.00;99.90
15937;DHT22;9163;48.818;8.976;2024-03-17T07:45:38;9.30;99.90
15937;DHT22;9163;48.818;8.976;2024-03-17T07:48:07;9.70;99.90
15937;DHT22;9163;48.818;8.976;2024-03-17T07:50:34;9.80;99.90
15937;DHT22;9163;48.818;8.976;2024-03-17T07:53:01;9.80;99.90
15937;DHT22;9163;48.818;8.976;2024-03-17T07:55:29;10.00;99.90
15937;DHT22;9163;48.818;8.976;2024-03-17T07:57:57;10.10;99.90
15937;DHT22;9163;48.818;8.976;2024-03-17T08:00:26;9.90;99.90
15937;DHT22;9163;48.818;8.976;2024-03-17T08:02:53;9.70;99.90
15937;DHT22;9163;48.818;8.976;2024-03-17T08:05:21;9.50;99.90
15937;DHT22;9163;48.818;8.976;2024-03-17T08:07:49;9.90;99.90
15937;DHT22;9163;48.818;8.976;2024-03-17T08:10:16;10.00;99.90
15937;DHT22;9163;48.818;8.976;2024-03-17T08:12:44;9.90;99.90
15937;DHT22;9163;48.818;8.976;2024-03-17T08:15:12;10.00;99.90
15937;DHT22;9163;48.818;8.976;2024-03-17T08:17:41;10.00;99.90
15937;DHT22;9163;48.818;8.976;2024-03-17T08:20:09;9.90;99.90
15937;DHT22;9163;48.818;8.976;2024-03-17T08:22:36;9.70;99.90
15937;DHT22;9163;48.818;8.976;2024-03-17T08:25:04;9.80;99.90
15937;DHT22;9163;48.818;8.976;2024-03-17T08:27:32;9.80;99.90
15937;DHT22;9163;48.818;8.976;2024-03-17T08:29:59;9.90;99.90
15937;DHT22;9163;48.818;8.976;2024-03-17T08:32:26;9.50;99.90
15937;DHT22;9163;48.818;8.976;2024-03-17T08:34:55;9.70;99.90
15937;DHT22;9163;48.818;8.976;2024-03-17T08:37:22;10.00;99.90
15937;DHT22;9163;48.818;8.976;2024-03-17T08:39:52;10.00;99.90
15937;DHT22;9163;48.818;8.976;2024-03-17T08:42:19;10.30;99.90
15937;DHT22;9163;48.818;8.976;2024-03-17T08:44:46;10.40;99.90
15937;DHT22;9163;48.818;8.976;2024-03-17T08:47:13;10.70;99.90
15937;DHT22;9163;48.818;8.976;2024-03-17T08:49:40;10.70;74.90
15937;DHT22;9163;48.818;8.976;2024-03-17T08:52:09;11.00;90.30
15937;DHT22;9163;48.818;8.976;2024-03-17T08:54:36;11.00;53.00
15937;DHT22;9163;48.818;8.976;2024-03-17T08:57:04;11.30;45.20
15937;DHT22;9163;48.818;8.976;2024-03-17T08:59:31;11.50;23.40
15937;DHT22;9163;48.818;8.976;2024-03-17T09:01:59;11.70;1.00
15937;DHT22;9163;48.818;8.976;2024-03-17T09:04:26;11.40;1.00
15937;DHT22;9163;48.818;8.976;2024-03-17T09:06:54;11.70;1.00
15937;DHT22;9163;48.818;8.976;2024-03-17T09:09:23;11.50;1.00
15937;DHT22;9163;48.818;8.976;2024-03-17T09:11:51;11.90;1.00
15937;DHT22;9163;48.818;8.976;2024-03-17T09:14:18;12.30;1.00
15937;DHT22;9163;48.818;8.976;2024-03-17T09:16:47;12.50;1.00
15937;DHT22;9163;48.818;8.976;2024-03-17T09:19:15;12.80;1.00
15937;DHT22;9163;48.818;8.976;2024-03-17T09:21:42;13.10;1.00
15937;DHT22;9163;48.818;8.976;2024-03-17T09:24:11;13.00;1.00
15937;DHT22;9163;48.818;8.976;2024-03-17T09:26:39;13.10;1.00
15937;DHT22;9163;48.818;8.976;2024-03-17T09:29:07;13.30;1.00
15937;DHT22;9163;48.818;8.976;2024-03-17T09:31:34;13.50;1.00
15937;DHT22;9163;48.818;8.976;2024-03-17T09:34:01;13.50;1.00
15937;DHT22;9163;48.818;8.976;2024-03-17T09:36:28;13.70;1.00
15937;DHT22;9163;48.818;8.976;2024-03-17T09:38:57;13.70;1.00
15937;DHT22;9163;48.818;8.976;2024-03-17T09:41:25;13.90;1.00
15937;DHT22;9163;48.818;8.976;2024-03-17T09:43:55;14.00;1.00
15937;DHT22;9163;48.818;8.976;2024-03-17T09:46:23;14.00;1.00
15937;DHT22;9163;48.818;8.976;2024-03-17T09:48:52;13.90;1.00
15937;DHT22;9163;48.818;8.976;2024-03-17T09:51:20;13.80;1.00
15937;DHT22;9163;48.818;8.976;2024-03-17T09:53:48;14.10;1.00
15937;DHT22;9163;48.818;8.976;2024-03-17T09:56:17;14.30;1.00
15937;DHT22;9163;48.818;8.976;2024-03-17T09:58:45;14.40;1.00
15937;DHT22;9163;48.818;8.976;2024-03-17T10:01:14;14.50;99.90
15937;DHT22;9163;48.818;8.976;2024-03-17T10:03:42;14.30;99.90
15937;DHT22;9163;48.818;8.976;2024-03-17T10:06:11;14.50;1.00
15937;DHT22;9163;48.818;8.976;2024-03-17T10:08:46;14.60;1.00
15937;DHT22;9163;48.818;8.976;2024-03-17T10:11:17;14.60;99.90
15937;DHT22;9163;48.818;8.976;2024-03-17T10:13:45;14.70;1.00
15937;DHT22;9163;48.818;8.976;2024-03-17T10:16:25;14.40;1.00
15937;DHT22;9163;48.818;8.976;2024-03-17T10:19:07;14.20;1.00
15937;DHT22;9163;48.818;8.976;2024-03-17T10:21:37;14.00;1.00
15937;DHT22;9163;48.818;8.976;2024-03-17T10:24:08;14.10;99.90
15937;DHT22;9163;48.818;8.976;2024-03-17T10:26:37;14.30;99.90
15937;DHT22;9163;48.818;8.976;2024-03-17T10:29:19;14.50;99.90
15937;DHT22;9163;48.818;8.976;2024-03-17T10:31:48;15.10;99.90
15937;DHT22;9163;48.818;8.976;2024-03-17T10:34:16;15.70;1.00
15937;DHT22;9163;48.818;8.976;2024-03-17T10:36:44;16.30;1.00
15937;DHT22;9163;48.818;8.976;2024-03-17T10:39:28;16.60;99.90
15937;DHT22;9163;48.818;8.976;2024-03-17T10:42:00;16.60;99.90
15937;DHT22;9163;48.818;8.976;2024-03-17T10:44:27;16.80;68.50
15937;DHT22;9163;48.818;8.976;2024-03-17T10:46:59;16.50;1.00
15937;DHT22;9163;48.818;8.976;2024-03-17T10:49:29;16.60;1.00
15937;DHT22;9163;48.818;8.976;2024-03-17T10:51:59;16.40;1.00
15937;DHT22;9163;48.818;8.976;2024-03-17T10:54:27;16.70;1.00
15937;DHT22;9163;48.818;8.976;2024-03-17T10:56:56;16.10;1.00
15937;DHT22;9163;48.818;8.976;2024-03-17T10:59:32;15.40;1.00
15937;DHT22;9163;48.818;8.976;2024-03-17T11:02:19;15.60;1.00
15937;DHT22;9163;48.818;8.976;2024-03-17T11:04:50;15.40;1.00
15937;DHT22;9163;48.818;8.976;2024-03-17T11:07:18;14.90;1.00
15937;DHT22;9163;48.818;8.976;2024-03-17T11:09:47;15.00;1.00
15937;DHT22;9163;48.818;8.976;2024-03-17T11:12:40;14.90;1.00
15937;DHT22;9163;48.818;8.976;2024-03-17T11:15:39;15.20;1.00
15937;DHT22;9163;48.818;8.976;2024-03-17T11:18:31;16.30;1.00
15937;DHT22;9163;48.818;8.976;2024-03-17T11:21:00;16.20;1.00
15937;DHT22;9163;48.818;8.976;2024-03-17T11:23:33;17.00;1.00
15937;DHT22;9163;48.818;8.976;2024-03-17T11:26:01;17.70;1.00
15937;DHT22;9163;48.818;8.976;2024-03-17T11:28:48;17.80;1.00
15937;DHT22;9163;48.818;8.976;2024-03-17T11:31:32;18.50;1.00
15937;DHT22;9163;48.818;8.976;2024-03-17T11:34:03;18.60;99.90
15937;DHT22;9163;48.818;8.976;2024-03-17T11:36:37;19.10;99.90
15937;DHT22;9163;48.818;8.976;2024-03-17T11:39:05;19.10;99.90
15937;DHT22;9163;48.818;8.976;2024-03-17T11:41:44;18.50;99.90
15937;DHT22;9163;48.818;8.976;2024-03-17T11:44:14;17.70;99.90
15937;DHT22;9163;48.818;8.976;2024-03-17T11:46:42;17.60;99.90
15937;DHT22;9163;48.818;8.976;2024-03-17T11:49:20;18.50;99.90
15937;DHT22;9163;48.818;8.976;2024-03-17T11:51:48;18.50;77.30
15937;DHT22;9163;48.818;8.976;2024-03-17T11:54:16;18.00;13.10
15937;DHT22;9163;48.818;8.976;2024-03-17T11:56:49;16.90;1.00
15937;DHT22;9163;48.818;8.976;2024-03-17T11:59:15;16.20;1.00
15937;DHT22;9163;48.818;8.976;2024-03-17T12:01:45;16.20;46.80
15937;DHT22;9163;48.818;8.976;2024-03-17T12:04:15;16.60;14.80
15937;DHT22;9163;48.818;8.976;2024-03-17T12:06:45;16.40;17.80
15937;DHT22;9163;48.818;8.976;2024-03-17T12:09:20;16.70;72.50
15937;DHT22;9163;48.818;8.976;2024-03-17T12:11:48;16.40;56.30
15937;DHT22;9163;48.818;8.976;2024-03-17T12:14:19;16.30;8.10
15937;DHT22;9163;48.818;8.976;2024-03-17T12:16:48;15.70;91.10
15937;DHT22;9163;48.818;8.976;2024-03-17T12:19:16;15.70;43.40
15937;DHT22;9163;48.818;8.976;2024-03-17T12:21:44;15.80;35.90
15937;DHT22;9163;48.818;8.976;2024-03-17T12:24:15;15.80;99.90
15937;DHT22;9163;48.818;8.976;2024-03-17T12:26:43;15.60;73.80
15937;DHT22;9163;48.818;8.976;2024-03-17T12:29:23;14.70;27.20
15937;DHT22;9163;48.818;8.976;2024-03-17T12:31:51;14.60;99.90
15937;DHT22;9163;48.818;8.976;2024-03-17T12:34:21;14.60;57.90
15937;DHT22;9163;48.818;8.976;2024-03-17T12:36:48;14.60;45.00
15937;DHT22;9163;48.818;8.976;2024-03-17T12:39:18;14.80;32.50
15937;DHT22;9163;48.818;8.976;2024-03-17T12:41:45;14.90;99.90
15937;DHT22;9163;48.818;8.976;2024-03-17T12:44:22;15.10;99.90
15937;DHT22;9163;48.818;8.976;2024-03-17T12:46:54;15.60;99.90
15937;DHT22;9163;48.818;8.976;2024-03-17T12:49:23;15.40;99.80
15937;DHT22;9163;48.818;8.976;2024-03-17T12:51:51;14.80;23.30
15937;DHT22;9163;48.818;8.976;2024-03-17T12:54:21;14.00;44.60
15937;DHT22;9163;48.818;8.976;2024-03-17T12:56:49;13.80;99.90
15937;DHT22;9163;48.818;8.976;2024-03-17T12:59:38;13.80;99.90
15937;DHT22;9163;48.818;8.976;2024-03-17T13:02:22;13.70;99.90
15937;DHT22;9163;48.818;8.976;2024-03-17T13:05:17;14.10;99.90
15937;DHT22;9163;48.818;8.976;2024-03-17T13:07:50;14.40;99.90
15937;DHT22;9163;48.818;8.976;2024-03-17T13:10:36;14.90;99.90
15937;DHT22;9163;48.818;8.976;2024-03-17T13:13:05;15.10;99.90
15937;DHT22;9163;48.818;8.976;2024-03-17T13:15:33;14.80;99.90
15937;DHT22;9163;48.818;8.976;2024-03-17T13:18:02;15.20;99.90
15937;DHT22;9163;48.818;8.976;2024-03-17T13:20:31;15.40;99.90
15937;DHT22;9163;48.818;8.976;2024-03-17T13:22:59;15.50;99.90
15937;DHT22;9163;48.818;8.976;2024-03-17T13:25:27;15.90;99.90
15937;DHT22;9163;48.818;8.976;2024-03-17T13:28:00;16.10;99.90
15937;DHT22;9163;48.818;8.976;2024-03-17T13:30:30;16.30;99.90
15937;DHT22;9163;48.818;8.976;2024-03-17T13:32:59;16.40;99.90
15937;DHT22;9163;48.818;8.976;2024-03-17T13:35:28;16.80;99.90
15937;DHT22;9163;48.818;8.976;2024-03-17T13:38:08;17.00;99.90
15937;DHT22;9163;48.818;8.976;2024-03-17T13:40:37;17.00;99.90
15937;DHT22;9163;48.818;8.976;2024-03-17T13:43:05;17.10;99.90
15937;DHT22;9163;48.818;8.976;2024-03-17T13:45:38;17.20;99.90
15937;DHT22;9163;48.818;8.976;2024-03-17T13:48:06;17.10;99.90
15937;DHT22;9163;48.818;8.976;2024-03-17T13:50:36;17.00;99.90
15937;DHT22;9163;48.818;8.976;2024-03-17T13:53:06;17.00;99.90
15937;DHT22;9163;48.818;8.976;2024-03-17T13:55:33;17.10;99.90
15937;DHT22;9163;48.818;8.976;2024-03-17T13:58:01;17.00;99.90
15937;DHT22;9163;48.818;8.976;2024-03-17T14:00:31;17.10;99.90
15937;DHT22;9163;48.818;8.976;2024-03-17T14:03:02;17.20;99.90
15937;DHT22;9163;48.818;8.976;2024-03-17T14:05:29;17.50;99.90
15937;DHT22;9163;48.818;8.976;2024-03-17T14:07:58;17.80;99.90
15937;DHT22;9163;48.818;8.976;2024-03-17T14:10:27;18.10;99.90
15937;DHT22;9163;48.818;8.976;2024-03-17T14:12:55;18.20;99.90
15937;DHT22;9163;48.818;8.976;2024-03-17T14:15:23;18.30;99.90
15937;DHT22;9163;48.818;8.976;2024-03-17T14:17:51;18.30;99.90
15937;DHT22;9163;48.818;8.976;2024-03-17T14:20:18;18.30;99.90
15937;DHT22;9163;48.818;8.976;2024-03-17T14:22:46;18.20;99.90
15937;DHT22;9163;48.818;8.976;2024-03-17T14:25:19;18.10;99.90
15937;DHT22;9163;48.818;8.976;2024-03-17T14:27:49;18.00;99.90
15937;DHT22;9163;48.818;8.976;2024-03-17T14:30:18;17.90;99.90
15937;DHT22;9163;48.818;8.976;2024-03-17T14:32:46;18.00;99.90
15937;DHT22;9163;48.818;8.976;2024-03-17T14:35:14;18.00;99.90
15937;DHT22;9163;48.818;8.976;2024-03-17T14:37:42;17.90;99.90
15937;DHT22;9163;48.818;8.976;2024-03-17T14:40:14;18.10;99.90
15937;DHT22;9163;48.818;8.976;2024-03-17T14:42:47;18.10;99.90
15937;DHT22;9163;48.818;8.976;2024-03-17T14:45:16;18.00;99.90
15937;DHT22;9163;48.818;8.976;2024-03-17T14:47:43;17.80;99.90
15937;DHT22;9163;48.818;8.976;2024-03-17T14:50:11;17.80;99.90
15937;DHT22;9163;48.818;8.976;2024-03-17T14:52:39;17.70;99.90
15937;DHT22;9163;48.818;8.976;2024-03-17T14:55:07;17.60;99.90
15937;DHT22;9163;48.818;8.976;2024-03-17T14:57:35;17.80;99.90
15937;DHT22;9163;48.818;8.976;2024-03-17T15:00:10;18.00;99.90
15937;DHT22;9163;48.818;8.976;2024-03-17T15:02:42;18.00;99.90
15937;DHT22;9163;48.818;8.976;2024-03-17T15:05:09;18.10;99.90
15937;DHT22;9163;48.818;8.976;2024-03-17T15:07:37;18.00;99.90
15937;DHT22;9163;48.818;8.976;2024-03-17T15:10:05;17.70;99.90
15937;DHT22;9163;48.818;8.976;2024-03-17T15:12:35;17.20;99.90
15937;DHT22;9163;48.818;8.976;2024-03-17T15:15:03;17.20;99.90
15937;DHT22;9163;48.818;8.976;2024-03-17T15:17:31;17.10;99.90
15937;DHT22;9163;48.818;8.976;2024-03-17T15:19:58;16.70;99.90
15937;DHT22;9163;48.818;8.976;2024-03-17T15:22:27;16.60;99.90
15937;DHT22;9163;48.818;8.976;2024-03-17T15:24:58;16.40;99.90
15937;DHT22;9163;48.818;8.976;2024-03-17T15:27:25;16.10;99.90
15937;DHT22;9163;48.818;8.976;2024-03-17T15:29:52;16.00;99.90
15937;DHT22;9163;48.818;8.976;2024-03-17T15:32:19;15.80;99.90
15937;DHT22;9163;48.818;8.976;2024-03-17T15:35:04;15.80;99.90
15937;DHT22;9163;48.818;8.976;2024-03-17T15:37:33;15.80;99.90
15937;DHT22;9163;48.818;8.976;2024-03-17T15:40:00;15.60;99.90
15937;DHT22;9163;48.818;8.976;2024-03-17T15:42:27;15.50;99.90
15937;DHT22;9163;48.818;8.976;2024-03-17T15:44:54;15.20;99.90
15937;DHT22;9163;48.818;8.976;2024-03-17T15:47:22;15.00;99.90
15937;DHT22;9163;48.818;8.976;2024-03-17T15:49:49;14.80;99.90
15937;DHT22;9163;48.818;8.976;2024-03-17T15:52:18;14.80;1.00
15937;DHT22;9163;48.818;8.976;2024-03-17T15:54:45;14.70;1.00
15937;DHT22;9163;48.818;8.976;2024-03-17T15:57:13;14.50;1.00
15937;DHT22;9163;48.818;8.976;2024-03-17T15:59:40;14.30;1.00
15937;DHT22;9163;48.818;8.976;2024-03-17T16:02:08;14.30;1.00
15937;DHT22;9163;48.818;8.976;2024-03-17T16:04:38;14.10;1.00
15937;DHT22;9163;48.818;8.976;2024-03-17T16:07:06;14.00;1.00
15937;DHT22;9163;48.818;8.976;2024-03-17T16:09:35;13.80;1.00
15937;DHT22;9163;48.818;8.976;2024-03-17T16:12:03;13.70;1.00